SAVT/REL METAR and TAF weather

Enter ICAO airport designator
Station Type Date Time Source
SAVT METAR 2022/01/26 09:40 UTC NOAA

SAVT 260940Z 00000KT 9999 FEW030 13/11 Q1022


Station Type Date Time Source
SAVT Decoded METAR 2022/01/26 09:40 UTC NOAA

Trelew Aerodrome, Argentina (SAVT) 43-12S 065-16W 43M
Jan 26, 2022 - 04:40 AM EST / 2022.01.26 0940 UTC
Wind: Calm:0
Visibility: greater than 7 mile(s):0
Sky conditions: mostly clear
Temperature: 55 F (13 C)
Dew Point: 51 F (11 C)
Relative Humidity: 87%
Pressure (altimeter): 30.18 in. Hg (1022 hPa)
ob: SAVT 260940Z 00000KT 9999 FEW030 13/11 Q1022
cycle: 9

Station Type Date Time Source
SAVT TAF 2021/12/31 18:45 UTC NOAA

TAF SAVT 311700Z 3118/0118 30018KT CAVOK TX29/3120Z TN16/0110Z
BECMG 3121/3123 9999 SCT030 SCT090

Example: see airport list